Time;durP1;ratioP1;P1;durP2;ratioP2;P2;SDS_P1;SDS_P2;PMS_P1;PMS_P2;Temp;Humidity;BMP_temperature;BMP_pressure;BME280_temperature;BME280_humidity;BME280_pressure;Samples;Min_cycle;Max_cycle;Signal;HPM_P1;HPM_P2
2023/08/19 00:01:29;;;;;;;26.83;22.95;;;;;;;;;;5073015;28;20371;-63
2023/08/19 00:03:56;;;;;;;24.88;22.23;;;;;;;;;;5073301;28;20067;-63
2023/08/19 00:06:51;;;;;;;26.70;23.30;;;;;;;;;;5072756;28;20548;-63
2023/08/19 00:09:17;;;;;;;26.67;22.75;;;;;;;;;;5072345;28;20654;-63
2023/08/19 00:11:43;;;;;;;25.75;22.73;;;;;;;;;;5072877;28;20044;-63
2023/08/19 00:14:09;;;;;;;24.15;21.55;;;;;;;;;;5072371;28;20048;-63
2023/08/19 00:16:35;;;;;;;27.02;21.90;;;;;;;;;;5072970;28;20499;-63
2023/08/19 00:19:02;;;;;;;26.08;23.27;;;;;;;;;;5072712;28;20072;-63
2023/08/19 00:21:28;;;;;;;25.52;22.73;;;;;;;;;;5072437;28;20041;-63
2023/08/19 00:23:55;;;;;;;26.02;23.30;;;;;;;;;;5072883;28;20087;-63
2023/08/19 00:26:21;;;;;;;28.17;23.05;;;;;;;;;;5072710;28;20447;-63
2023/08/19 00:28:47;;;;;;;24.45;21.77;;;;;;;;;;5071940;28;20462;-63
2023/08/19 00:31:13;;;;;;;29.23;22.67;;;;;;;;;;5072462;28;20044;-63
2023/08/19 00:33:39;;;;;;;28.17;22.42;;;;;;;;;;5072649;28;20534;-63
2023/08/19 00:36:05;;;;;;;26.20;22.80;;;;;;;;;;5071946;28;20037;-63
2023/08/19 00:38:31;;;;;;;25.20;22.50;;;;;;;;;;5086371;28;20115;-63
2023/08/19 00:40:58;;;;;;;24.75;22.05;;;;;;;;;;5092850;28;20471;-63
2023/08/19 00:43:24;;;;;;;25.08;22.38;;;;;;;;;;5092371;28;20040;-63
2023/08/19 00:45:50;;;;;;;25.75;22.73;;;;;;;;;;5092774;28;20044;-63
2023/08/19 00:48:19;;;;;;;25.95;23.15;;;;;;;;;;5092553;28;20048;-63
2023/08/19 00:50:45;;;;;;;23.83;21.33;;;;;;;;;;5069876;28;20036;-63
2023/08/19 00:53:12;;;;;;;24.98;22.27;;;;;;;;;;5072362;28;20124;-63
2023/08/19 00:55:39;;;;;;;25.88;22.13;;;;;;;;;;5072113;28;20512;-63
2023/08/19 00:58:07;;;;;;;24.17;21.20;;;;;;;;;;5071875;28;20067;-63
2023/08/19 01:00:34;;;;;;;25.60;22.17;;;;;;;;;;5071955;28;20044;-63
2023/08/19 01:03:00;;;;;;;25.70;21.83;;;;;;;;;;5072132;28;20470;-63
2023/08/19 01:05:33;;;;;;;24.17;21.55;;;;;;;;;;5071734;28;20037;-63
2023/08/19 01:08:00;;;;;;;26.90;23.08;;;;;;;;;;5072101;28;20032;-63
2023/08/19 01:10:26;;;;;;;29.00;21.70;;;;;;;;;;5071976;28;20045;-63
2023/08/19 01:12:55;;;;;;;24.88;21.58;;;;;;;;;;5071759;28;20055;-63
2023/08/19 01:15:24;;;;;;;24.55;22.02;;;;;;;;;;5071826;28;20060;-63
2023/08/19 01:17:51;;;;;;;26.83;22.77;;;;;;;;;;5070391;28;20052;-63
2023/08/19 01:20:18;;;;;;;25.60;21.95;;;;;;;;;;5069847;28;20129;-63
2023/08/19 01:23:00;;;;;;;24.02;20.73;;;;;;;;;;5071752;28;20045;-63
2023/08/19 01:25:26;;;;;;;26.25;21.35;;;;;;;;;;5071835;28;20036;-63
2023/08/19 01:27:52;;;;;;;28.65;21.25;;;;;;;;;;5071333;28;20449;-63
2023/08/19 01:30:18;;;;;;;26.20;21.95;;;;;;;;;;5071607;28;20048;-64
2023/08/19 01:32:45;;;;;;;28.38;24.63;;;;;;;;;;5071355;28;20044;-63
2023/08/19 01:35:12;;;;;;;24.73;21.55;;;;;;;;;;5071096;28;20045;-63
2023/08/19 01:37:38;;;;;;;26.83;21.52;;;;;;;;;;5077947;28;20048;-63
2023/08/19 01:40:07;;;;;;;25.60;20.95;;;;;;;;;;5091631;28;20444;-63
2023/08/19 01:42:33;;;;;;;25.23;22.33;;;;;;;;;;5091033;28;20040;-63
2023/08/19 01:45:00;;;;;;;24.85;21.60;;;;;;;;;;5091638;28;20154;-63
2023/08/19 01:47:26;;;;;;;26.40;21.33;;;;;;;;;;5091805;28;20097;-63
2023/08/19 01:49:52;;;;;;;24.23;21.38;;;;;;;;;;5077942;28;20044;-63
2023/08/19 01:52:19;;;;;;;25.08;22.23;;;;;;;;;;5071448;28;20070;-63
2023/08/19 01:54:45;;;;;;;28.45;23.38;;;;;;;;;;5071289;28;20083;-63
2023/08/19 01:57:11;;;;;;;26.92;22.38;;;;;;;;;;5070977;28;20456;-63
2023/08/19 01:59:37;;;;;;;25.13;21.58;;;;;;;;;;5071214;28;20173;-63
2023/08/19 02:02:03;;;;;;;24.90;22.10;;;;;;;;;;5073009;28;20040;-63
2023/08/19 02:04:29;;;;;;;23.40;20.67;;;;;;;;;;5075086;28;20045;-63
2023/08/19 02:06:55;;;;;;;24.23;21.63;;;;;;;;;;5075183;28;20560;-63
2023/08/19 02:09:21;;;;;;;23.83;20.73;;;;;;;;;;5074074;28;20045;-63
2023/08/19 02:11:47;;;;;;;25.17;20.65;;;;;;;;;;5074755;28;20368;-63
2023/08/19 02:14:14;;;;;;;24.73;21.38;;;;;;;;;;5075245;28;20498;-63
2023/08/19 02:16:40;;;;;;;24.67;22.00;;;;;;;;;;5075155;28;20133;-63
2023/08/19 02:19:06;;;;;;;25.52;21.55;;;;;;;;;;5074685;28;20055;-63
2023/08/19 02:21:32;;;;;;;23.85;21.33;;;;;;;;;;5074994;28;20115;-63
2023/08/19 02:23:58;;;;;;;24.33;21.08;;;;;;;;;;5075202;28;20457;-63
2023/08/19 02:26:24;;;;;;;24.27;20.90;;;;;;;;;;5074666;28;20036;-63
2023/08/19 02:28:50;;;;;;;25.45;22.08;;;;;;;;;;5074514;28;20059;-63
2023/08/19 02:31:16;;;;;;;25.55;21.45;;;;;;;;;;5073436;28;20127;-63
2023/08/19 02:33:42;;;;;;;26.10;20.52;;;;;;;;;;5074481;28;20044;-63
2023/08/19 02:36:08;;;;;;;26.65;21.52;;;;;;;;;;5074643;28;20041;-63
2023/08/19 02:38:34;;;;;;;27.58;21.23;;;;;;;;;;5087563;28;20416;-63
2023/08/19 02:41:00;;;;;;;28.25;22.17;;;;;;;;;;5094413;28;20036;-63
2023/08/19 02:43:26;;;;;;;29.58;22.38;;;;;;;;;;5094905;28;20039;-63
2023/08/19 02:45:53;;;;;;;29.73;23.63;;;;;;;;;;5094571;28;20047;-63
2023/08/19 02:48:19;;;;;;;26.40;22.65;;;;;;;;;;5094829;28;20047;-64
2023/08/19 02:50:45;;;;;;;26.52;21.73;;;;;;;;;;5074153;28;20048;-63
2023/08/19 02:53:11;;;;;;;24.95;21.15;;;;;;;;;;5074512;28;20123;-63
2023/08/19 02:55:41;;;;;;;25.77;22.45;;;;;;;;;;5074402;28;20098;-63
2023/08/19 02:58:07;;;;;;;25.10;21.02;;;;;;;;;;5074329;28;20165;-63
2023/08/19 03:00:37;;;;;;;24.42;21.20;;;;;;;;;;5073909;28;20048;-63
2023/08/19 03:03:03;;;;;;;26.45;21.75;;;;;;;;;;5074336;28;20036;-63
2023/08/19 03:05:29;;;;;;;25.75;21.35;;;;;;;;;;5073929;28;20043;-63
2023/08/19 03:07:55;;;;;;;26.75;21.65;;;;;;;;;;5074280;28;20044;-63
2023/08/19 03:10:21;;;;;;;24.08;21.42;;;;;;;;;;5074132;28;20131;-63
2023/08/19 03:12:47;;;;;;;27.42;21.20;;;;;;;;;;5073146;28;20523;-63
2023/08/19 03:15:13;;;;;;;25.92;20.88;;;;;;;;;;5073766;28;20085;-63
2023/08/19 03:17:39;;;;;;;25.33;21.40;;;;;;;;;;5073950;28;20040;-63
2023/08/19 03:20:06;;;;;;;27.05;22.95;;;;;;;;;;5073549;28;20041;-63
2023/08/19 03:22:32;;;;;;;26.35;22.50;;;;;;;;;;5073971;28;20080;-63
2023/08/19 03:24:58;;;;;;;25.08;20.90;;;;;;;;;;5073907;28;20037;-63
2023/08/19 03:27:24;;;;;;;27.17;20.55;;;;;;;;;;5073197;28;20092;-63
2023/08/19 03:29:50;;;;;;;25.67;21.10;;;;;;;;;;5073718;28;20390;-63
2023/08/19 03:32:16;;;;;;;28.38;22.50;;;;;;;;;;5073724;28;20119;-63
2023/08/19 03:34:42;;;;;;;23.73;20.23;;;;;;;;;;5073152;28;20637;-63
2023/08/19 03:37:08;;;;;;;25.10;20.63;;;;;;;;;;5075680;28;20079;-63
2023/08/19 03:39:34;;;;;;;25.85;21.20;;;;;;;;;;5092558;28;20055;-63
2023/08/19 03:42:00;;;;;;;22.95;20.13;;;;;;;;;;5093504;28;20039;-63
2023/08/19 03:44:26;;;;;;;23.75;19.50;;;;;;;;;;5093712;28;20036;-63
2023/08/19 03:46:52;;;;;;;27.35;20.05;;;;;;;;;;5093771;28;20076;-63
2023/08/19 03:49:20;;;;;;;29.20;22.55;;;;;;;;;;5085080;28;20040;-63
2023/08/19 03:51:46;;;;;;;29.75;21.77;;;;;;;;;;5071992;28;20169;-63
2023/08/19 03:54:12;;;;;;;24.70;19.98;;;;;;;;;;5073513;28;20052;-63
2023/08/19 03:56:38;;;;;;;24.17;19.80;;;;;;;;;;5071696;28;20041;-63
2023/08/19 03:59:04;;;;;;;27.50;20.45;;;;;;;;;;5073307;28;20044;-63
2023/08/19 04:01:30;;;;;;;26.25;20.63;;;;;;;;;;5071612;28;20037;-63
2023/08/19 04:03:56;;;;;;;24.92;19.65;;;;;;;;;;5071157;28;20043;-63
2023/08/19 04:06:22;;;;;;;26.15;21.98;;;;;;;;;;5073089;28;20044;-63
2023/08/19 04:08:48;;;;;;;27.20;19.88;;;;;;;;;;5073028;28;20036;-63
2023/08/19 04:11:14;;;;;;;24.60;19.25;;;;;;;;;;5072558;28;20039;-63
2023/08/19 04:13:40;;;;;;;24.98;19.48;;;;;;;;;;5073100;28;20072;-63
2023/08/19 04:16:07;;;;;;;24.40;18.80;;;;;;;;;;5072558;28;20036;-63
2023/08/19 04:18:34;;;;;;;24.80;20.33;;;;;;;;;;5072226;28;20043;-63
2023/08/19 04:21:06;;;;;;;23.52;18.88;;;;;;;;;;5072157;28;20040;-63
2023/08/19 04:23:32;;;;;;;22.70;17.88;;;;;;;;;;5072561;28;20083;-63
2023/08/19 04:25:58;;;;;;;23.67;19.67;;;;;;;;;;5072323;28;20147;-63
2023/08/19 04:28:25;;;;;;;22.38;18.63;;;;;;;;;;5072310;28;20084;-63
2023/08/19 04:30:51;;;;;;;24.85;18.58;;;;;;;;;;5072568;28;20483;-63
2023/08/19 04:33:17;;;;;;;23.55;18.30;;;;;;;;;;5071966;28;20170;-63
2023/08/19 04:35:43;;;;;;;19.80;16.90;;;;;;;;;;5072335;28;20502;-63
2023/08/19 04:38:09;;;;;;;23.17;18.50;;;;;;;;;;5083311;28;20040;-63
2023/08/19 04:40:35;;;;;;;22.02;17.05;;;;;;;;;;5092228;28;20054;-63
2023/08/19 04:43:01;;;;;;;23.92;19.27;;;;;;;;;;5092711;28;20035;-63
2023/08/19 04:45:27;;;;;;;21.50;18.00;;;;;;;;;;5092596;28;20074;-64
2023/08/19 04:47:53;;;;;;;22.80;18.88;;;;;;;;;;5092229;28;20454;-63
2023/08/19 04:50:21;;;;;;;23.23;17.48;;;;;;;;;;5075551;28;20047;-64
2023/08/19 04:52:47;;;;;;;20.48;17.65;;;;;;;;;;5070557;28;20075;-63
2023/08/19 04:55:14;;;;;;;22.15;17.75;;;;;;;;;;5071761;28;20044;-63
2023/08/19 04:57:42;;;;;;;24.15;17.92;;;;;;;;;;5072068;28;20538;-63
2023/08/19 05:00:12;;;;;;;24.63;17.65;;;;;;;;;;5072065;28;20040;-63
2023/08/19 05:02:38;;;;;;;21.60;15.02;;;;;;;;;;5071683;28;20040;-63
2023/08/19 05:05:04;;;;;;;18.55;15.10;;;;;;;;;;5072031;28;20047;-63
2023/08/19 05:07:30;;;;;;;19.10;15.00;;;;;;;;;;5072028;28;20041;-63
2023/08/19 05:09:56;;;;;;;18.70;15.15;;;;;;;;;;5070286;28;20381;-63
2023/08/19 05:12:25;;;;;;;22.65;15.65;;;;;;;;;;5071970;28;20044;-63
2023/08/19 05:14:51;;;;;;;18.20;14.82;;;;;;;;;;5071898;28;20512;-63
2023/08/19 05:17:18;;;;;;;18.55;15.70;;;;;;;;;;5071468;28;20040;-63
2023/08/19 05:19:44;;;;;;;21.88;16.13;;;;;;;;;;5071697;28;20075;-63
2023/08/19 05:22:10;;;;;;;20.08;15.35;;;;;;;;;;5071762;28;20036;-63
2023/08/19 05:24:36;;;;;;;19.88;15.50;;;;;;;;;;5069994;28;20043;-63
2023/08/19 05:27:02;;;;;;;19.85;15.50;;;;;;;;;;5071732;28;20119;-63
2023/08/19 05:29:28;;;;;;;20.98;15.38;;;;;;;;;;5071332;28;20074;-63
2023/08/19 05:31:55;;;;;;;17.55;14.25;;;;;;;;;;5070988;28;20068;-63
2023/08/19 05:34:21;;;;;;;17.73;13.52;;;;;;;;;;5071583;28;20091;-63
2023/08/19 05:36:47;;;;;;;18.20;14.00;;;;;;;;;;5071207;28;20399;-63
2023/08/19 05:39:13;;;;;;;18.63;14.88;;;;;;;;;;5090712;28;20558;-63
2023/08/19 05:41:39;;;;;;;17.45;14.43;;;;;;;;;;5091439;28;20118;-63
2023/08/19 05:44:05;;;;;;;19.52;15.55;;;;;;;;;;5091608;28;20509;-63
2023/08/19 05:46:31;;;;;;;18.20;14.60;;;;;;;;;;5091285;28;20040;-63
2023/08/19 05:48:57;;;;;;;18.58;14.77;;;;;;;;;;5086366;28;20456;-63
2023/08/19 05:51:23;;;;;;;16.42;12.93;;;;;;;;;;5071311;28;20036;-63
2023/08/19 05:53:49;;;;;;;17.65;13.82;;;;;;;;;;5071067;28;20052;-63
2023/08/19 05:56:15;;;;;;;17.95;13.77;;;;;;;;;;5071301;28;20127;-63
2023/08/19 05:58:41;;;;;;;17.75;14.48;;;;;;;;;;5053299;28;20045;-63
2023/08/19 06:01:08;;;;;;;19.00;14.15;;;;;;;;;;5070505;28;20055;-63
2023/08/19 06:03:34;;;;;;;16.95;13.95;;;;;;;;;;5071245;28;20036;-63
2023/08/19 06:06:05;;;;;;;17.58;13.63;;;;;;;;;;5070892;28;20040;-63
2023/08/19 06:08:31;;;;;;;14.98;12.55;;;;;;;;;;5070809;28;20048;-63
2023/08/19 06:11:02;;;;;;;15.95;12.45;;;;;;;;;;5071136;28;20040;-63
2023/08/19 06:13:28;;;;;;;15.75;12.48;;;;;;;;;;5071240;28;20068;-63
2023/08/19 06:15:55;;;;;;;14.20;12.25;;;;;;;;;;5070456;28;20079;-63
2023/08/19 06:18:21;;;;;;;14.50;12.43;;;;;;;;;;5071198;28;20072;-63
2023/08/19 06:20:49;;;;;;;14.18;12.40;;;;;;;;;;5070803;28;20055;-63
2023/08/19 06:23:15;;;;;;;17.30;13.73;;;;;;;;;;5069173;28;20102;-63
2023/08/19 06:25:41;;;;;;;17.75;13.45;;;;;;;;;;5071154;28;20531;-63
2023/08/19 06:28:06;;;;;;;16.40;13.45;;;;;;;;;;5070614;28;20084;-63
2023/08/19 06:30:33;;;;;;;17.38;14.10;;;;;;;;;;5070140;28;20084;-63
2023/08/19 06:32:59;;;;;;;16.75;13.32;;;;;;;;;;5070669;28;20041;-63
2023/08/19 06:35:25;;;;;;;20.55;13.48;;;;;;;;;;5070670;28;20083;-63
2023/08/19 06:37:54;;;;;;;16.15;12.68;;;;;;;;;;5078330;28;20181;-63
2023/08/19 06:40:22;;;;;;;14.13;12.60;;;;;;;;;;5090886;28;20076;-63
2023/08/19 06:42:51;;;;;;;15.70;13.02;;;;;;;;;;5090847;28;20119;-63
2023/08/19 06:45:17;;;;;;;16.73;13.23;;;;;;;;;;5090648;28;20036;-63
2023/08/19 06:47:45;;;;;;;19.33;12.48;;;;;;;;;;5091063;28;20421;-63
2023/08/19 06:50:12;;;;;;;16.95;11.88;;;;;;;;;;5077565;28;20525;-63
2023/08/19 06:52:38;;;;;;;15.20;11.88;;;;;;;;;;5074115;28;20094;-63
2023/08/19 06:55:05;;;;;;;16.73;12.82;;;;;;;;;;5074186;28;20040;-63
2023/08/19 06:57:39;;;;;;;15.57;11.80;;;;;;;;;;5074463;28;20036;-63
2023/08/19 07:00:09;;;;;;;15.88;12.05;;;;;;;;;;5073761;28;20076;-63
2023/08/19 07:02:36;;;;;;;14.90;11.63;;;;;;;;;;5073951;28;20648;-63
2023/08/19 07:05:03;;;;;;;15.48;11.70;;;;;;;;;;5074155;28;20041;-63
2023/08/19 07:07:29;;;;;;;14.85;11.00;;;;;;;;;;5073812;28;20124;-63
2023/08/19 07:09:56;;;;;;;15.82;12.60;;;;;;;;;;5073714;28;20044;-63
2023/08/19 07:12:22;;;;;;;16.70;12.15;;;;;;;;;;5074148;28;20510;-63
2023/08/19 07:14:48;;;;;;;16.10;12.27;;;;;;;;;;5073304;28;20080;-63
2023/08/19 07:17:16;;;;;;;14.38;10.65;;;;;;;;;;5074000;28;20832;-63
2023/08/19 07:19:42;;;;;;;16.02;11.68;;;;;;;;;;5073895;28;20087;-63
2023/08/19 07:22:09;;;;;;;15.40;11.02;;;;;;;;;;5073751;28;20578;-63
2023/08/19 07:24:35;;;;;;;13.85;11.32;;;;;;;;;;5073706;28;20040;-63
2023/08/19 07:27:02;;;;;;;12.77;9.80;;;;;;;;;;5073956;28;20376;-63
2023/08/19 07:29:28;;;;;;;13.35;9.98;;;;;;;;;;5072008;28;20057;-63
2023/08/19 07:31:55;;;;;;;15.85;10.82;;;;;;;;;;5073379;28;20067;-63
2023/08/19 07:34:21;;;;;;;13.55;10.35;;;;;;;;;;5073590;28;20044;-63
2023/08/19 07:36:47;;;;;;;11.57;9.63;;;;;;;;;;5073555;28;20070;-63
2023/08/19 07:39:13;;;;;;;12.07;9.65;;;;;;;;;;5091390;28;20059;-63
2023/08/19 07:41:39;;;;;;;17.10;10.25;;;;;;;;;;5093646;28;20039;-63
2023/08/19 07:44:05;;;;;;;12.23;9.55;;;;;;;;;;5093442;28;20032;-63
2023/08/19 07:46:32;;;;;;;13.15;9.32;;;;;;;;;;5092156;28;20043;-63
2023/08/19 07:48:58;;;;;;;10.43;9.38;;;;;;;;;;5088254;28;20033;-63
2023/08/19 07:51:24;;;;;;;17.02;9.80;;;;;;;;;;5073374;28;20040;-63
2023/08/19 07:53:50;;;;;;;11.60;8.73;;;;;;;;;;5072833;28;20075;-63
2023/08/19 07:56:19;;;;;;;11.25;8.52;;;;;;;;;;5072928;28;20570;-63
2023/08/19 07:58:45;;;;;;;8.75;7.85;;;;;;;;;;5073122;28;20040;-63
2023/08/19 08:01:11;;;;;;;13.48;8.23;;;;;;;;;;5072486;28;20490;-63
2023/08/19 08:03:38;;;;;;;13.82;9.02;;;;;;;;;;5072878;28;20045;-63
2023/08/19 08:06:04;;;;;;;13.38;9.27;;;;;;;;;;5072698;28;20036;-63
2023/08/19 08:08:30;;;;;;;12.57;8.55;;;;;;;;;;5072602;28;20581;-63
2023/08/19 08:10:56;;;;;;;12.02;8.20;;;;;;;;;;5072926;28;20119;-63
2023/08/19 08:13:22;;;;;;;9.95;7.75;;;;;;;;;;5072944;28;20617;-63
2023/08/19 08:15:48;;;;;;;10.00;8.13;;;;;;;;;;5072534;28;20063;-63
2023/08/19 08:18:15;;;;;;;10.95;8.20;;;;;;;;;;5072849;28;20415;-63
2023/08/19 08:20:41;;;;;;;13.05;9.02;;;;;;;;;;5072623;28;20045;-63
2023/08/19 08:23:07;;;;;;;12.13;7.95;;;;;;;;;;5072408;28;20638;-63
2023/08/19 08:25:33;;;;;;;11.80;8.10;;;;;;;;;;5072720;28;20094;-63
2023/08/19 08:27:59;;;;;;;12.85;8.68;;;;;;;;;;5072496;28;20080;-63
2023/08/19 08:30:25;;;;;;;13.00;7.68;;;;;;;;;;5072039;28;20055;-63
2023/08/19 08:32:51;;;;;;;13.45;8.48;;;;;;;;;;5072220;28;20158;-63
2023/08/19 08:35:18;;;;;;;9.85;8.00;;;;;;;;;;5072215;28;20048;-63
2023/08/19 08:37:44;;;;;;;9.52;7.40;;;;;;;;;;5078756;28;20055;-63
2023/08/19 08:40:10;;;;;;;11.18;7.93;;;;;;;;;;5092543;28;20048;-63
2023/08/19 08:42:36;;;;;;;13.82;8.18;;;;;;;;;;5092515;28;20040;-63
2023/08/19 08:45:02;;;;;;;13.43;6.95;;;;;;;;;;5092247;28;20051;-63
2023/08/19 08:47:29;;;;;;;12.88;7.60;;;;;;;;;;5092534;28;20089;-63
2023/08/19 08:49:55;;;;;;;10.70;7.15;;;;;;;;;;5079134;28;20048;-63
2023/08/19 08:52:21;;;;;;;14.75;6.88;;;;;;;;;;5071855;28;20040;-63
2023/08/19 08:54:53;;;;;;;8.98;7.25;;;;;;;;;;5072145;28;20415;-63
2023/08/19 08:57:20;;;;;;;8.85;6.50;;;;;;;;;;5072275;28;20131;-63
2023/08/19 08:59:46;;;;;;;8.13;6.18;;;;;;;;;;5071563;28;20530;-63
2023/08/19 09:02:12;;;;;;;8.43;6.57;;;;;;;;;;5071983;28;20036;-63
2023/08/19 09:04:44;;;;;;;10.23;6.85;;;;;;;;;;5071982;28;20674;-63
2023/08/19 09:07:12;;;;;;;10.13;6.35;;;;;;;;;;5071216;28;20084;-63
2023/08/19 09:09:43;;;;;;;9.13;6.22;;;;;;;;;;5071684;28;20077;-63
2023/08/19 09:12:11;;;;;;;12.95;6.22;;;;;;;;;;5071183;28;20124;-63
2023/08/19 09:14:40;;;;;;;11.43;5.85;;;;;;;;;;5071557;28;20040;-63
2023/08/19 09:17:06;;;;;;;10.75;6.20;;;;;;;;;;5071837;28;20040;-63
2023/08/19 09:19:32;;;;;;;8.70;6.32;;;;;;;;;;5071738;28;20095;-63
2023/08/19 09:22:08;;;;;;;12.27;6.38;;;;;;;;;;5071410;28;20089;-63
2023/08/19 09:24:35;;;;;;;11.05;6.55;;;;;;;;;;5071953;28;20039;-64
2023/08/19 09:27:02;;;;;;;10.20;6.80;;;;;;;;;;5071497;28;20037;-63
2023/08/19 09:29:28;;;;;;;9.13;6.30;;;;;;;;;;5070935;28;20507;-63
2023/08/19 09:31:58;;;;;;;9.77;6.53;;;;;;;;;;5071609;28;20561;-63
2023/08/19 09:34:24;;;;;;;8.68;6.20;;;;;;;;;;5071613;28;20105;-63
2023/08/19 09:36:54;;;;;;;8.70;6.78;;;;;;;;;;5071233;28;20817;-63
2023/08/19 09:39:20;;;;;;;9.35;6.60;;;;;;;;;;5071368;28;20483;-63
2023/08/19 09:41:46;;;;;;;10.50;6.40;;;;;;;;;;5071473;28;20040;-63
2023/08/19 09:44:13;;;;;;;9.85;6.40;;;;;;;;;;5071000;28;20066;-63
2023/08/19 09:46:40;;;;;;;10.95;6.90;;;;;;;;;;5071437;28;20041;-63
2023/08/19 09:49:06;;;;;;;11.35;6.25;;;;;;;;;;5077786;28;20058;-63
2023/08/19 09:51:32;;;;;;;11.77;7.10;;;;;;;;;;5091206;28;20032;-63
2023/08/19 09:54:08;;;;;;;14.40;7.00;;;;;;;;;;5091359;28;20044;-64
2023/08/19 09:56:34;;;;;;;10.75;7.18;;;;;;;;;;5091598;28;20528;-63
2023/08/19 09:59:00;;;;;;;10.90;6.47;;;;;;;;;;5090838;28;20039;-63
2023/08/19 10:01:27;;;;;;;9.40;6.70;;;;;;;;;;5091485;28;20044;-63
2023/08/19 10:03:53;;;;;;;13.73;6.75;;;;;;;;;;5091576;28;20086;-63
2023/08/19 10:06:27;;;;;;;13.98;7.43;;;;;;;;;;5091081;28;20036;-63
2023/08/19 10:09:00;;;;;;;12.43;6.63;;;;;;;;;;5091264;28;20048;-63
2023/08/19 10:11:28;;;;;;;12.15;7.00;;;;;;;;;;5091259;28;20046;-63
2023/08/19 10:13:55;;;;;;;12.90;7.65;;;;;;;;;;5091028;28;20505;-63
2023/08/19 10:16:24;;;;;;;12.43;8.27;;;;;;;;;;5091086;28;20077;-63
2023/08/19 10:18:50;;;;;;;10.65;7.40;;;;;;;;;;5091361;28;20040;-63
2023/08/19 10:21:16;;;;;;;12.32;7.95;;;;;;;;;;5090850;28;20153;-63
2023/08/19 10:23:44;;;;;;;15.05;8.65;;;;;;;;;;5094325;28;20439;-63
2023/08/19 10:26:10;;;;;;;12.80;8.27;;;;;;;;;;5094175;28;20071;-63
2023/08/19 10:28:36;;;;;;;16.73;8.88;;;;;;;;;;5094467;28;20060;-63
2023/08/19 10:31:07;;;;;;;13.70;9.30;;;;;;;;;;5095036;28;20441;-63
2023/08/19 10:33:37;;;;;;;14.95;9.38;;;;;;;;;;5095100;28;20473;-63
2023/08/19 10:36:07;;;;;;;13.88;9.98;;;;;;;;;;5094444;28;20072;-63
2023/08/19 10:38:42;;;;;;;12.77;8.80;;;;;;;;;;5081028;28;20491;-63
2023/08/19 10:41:23;;;;;;;12.43;10.43;;;;;;;;;;5074610;28;20093;-63
2023/08/19 10:44:00;;;;;;;13.63;9.37;;;;;;;;;;5074375;28;20052;-63
2023/08/19 10:46:39;;;;;;;15.18;9.60;;;;;;;;;;5074677;28;20275;-63
2023/08/19 10:49:12;;;;;;;13.90;9.68;;;;;;;;;;5080637;28;20040;-63
2023/08/19 10:51:44;;;;;;;13.10;10.13;;;;;;;;;;5094288;28;20482;-63
2023/08/19 10:54:10;;;;;;;13.82;10.10;;;;;;;;;;5094849;28;20089;-63
2023/08/19 10:56:36;;;;;;;11.13;9.77;;;;;;;;;;5094692;28;20466;-63
2023/08/19 10:59:03;;;;;;;18.42;10.30;;;;;;;;;;5093866;28;20101;-63
2023/08/19 11:01:30;;;;;;;13.23;9.98;;;;;;;;;;5094458;28;20032;-63
2023/08/19 11:03:58;;;;;;;15.02;9.52;;;;;;;;;;5094345;28;20051;-63
2023/08/19 11:06:29;;;;;;;12.85;9.23;;;;;;;;;;5094065;28;20476;-63
2023/08/19 11:08:58;;;;;;;14.27;9.73;;;;;;;;;;5094480;28;20046;-63
2023/08/19 11:11:24;;;;;;;13.10;9.45;;;;;;;;;;5094166;28;20626;-63
2023/08/19 11:13:50;;;;;;;13.63;9.57;;;;;;;;;;5094057;28;20569;-63
2023/08/19 11:16:16;;;;;;;12.15;8.98;;;;;;;;;;5094314;28;20104;-64
2023/08/19 11:18:42;;;;;;;15.50;11.32;;;;;;;;;;5094333;28;20040;-64
2023/08/19 11:21:08;;;;;;;18.52;11.75;;;;;;;;;;5093675;28;20040;-63
2023/08/19 11:23:34;;;;;;;18.67;12.00;;;;;;;;;;5094200;28;20089;-63
2023/08/19 11:26:00;;;;;;;17.67;11.18;;;;;;;;;;5094227;28;20466;-63
2023/08/19 11:28:26;;;;;;;13.50;11.52;;;;;;;;;;5093387;28;20150;-63
2023/08/19 11:30:52;;;;;;;19.27;12.30;;;;;;;;;;5093966;28;20506;-63
2023/08/19 11:33:19;;;;;;;16.42;11.30;;;;;;;;;;5094068;28;20105;-63
2023/08/19 11:35:46;;;;;;;18.00;13.02;;;;;;;;;;5092742;28;20135;-63
2023/08/19 11:38:13;;;;;;;18.63;12.13;;;;;;;;;;5082889;28;20051;-64
2023/08/19 11:40:39;;;;;;;15.20;11.55;;;;;;;;;;5073605;28;20401;-64
2023/08/19 11:43:08;;;;;;;15.77;12.50;;;;;;;;;;5073219;28;20033;-64
2023/08/19 11:45:37;;;;;;;16.17;13.20;;;;;;;;;;5073614;28;20052;-64
2023/08/19 11:48:04;;;;;;;17.98;12.75;;;;;;;;;;5073571;28;20044;-64
2023/08/19 11:50:34;;;;;;;16.08;12.95;;;;;;;;;;5091025;28;20059;-64
2023/08/19 11:53:02;;;;;;;17.48;14.13;;;;;;;;;;5093352;28;20039;-63
2023/08/19 11:55:28;;;;;;;20.77;15.88;;;;;;;;;;5093528;28;20555;-63
2023/08/19 11:57:54;;;;;;;18.75;14.23;;;;;;;;;;5093109;28;20040;-64
2023/08/19 12:00:20;;;;;;;27.30;19.67;;;;;;;;;;5093371;28;20119;-64
2023/08/19 12:02:47;;;;;;;23.08;18.38;;;;;;;;;;5093570;28;20047;-64
2023/08/19 12:05:29;;;;;;;26.20;22.05;;;;;;;;;;5093044;28;20455;-63
2023/08/19 12:07:55;;;;;;;24.50;21.15;;;;;;;;;;5093458;28;20636;-64
2023/08/19 12:10:21;;;;;;;24.40;20.10;;;;;;;;;;5093229;28;20035;-63
2023/08/19 12:12:57;;;;;;;25.50;20.30;;;;;;;;;;5092813;28;20182;-64
2023/08/19 12:15:23;;;;;;;28.20;21.63;;;;;;;;;;5093140;28;20044;-63
2023/08/19 12:17:49;;;;;;;24.80;21.15;;;;;;;;;;5093177;28;20177;-63
2023/08/19 12:20:15;;;;;;;30.60;24.77;;;;;;;;;;5092683;28;20047;-63
2023/08/19 12:22:41;;;;;;;33.40;25.55;;;;;;;;;;5091769;28;20088;-63
2023/08/19 12:25:09;;;;;;;38.97;31.70;;;;;;;;;;5093029;28;20040;-63
2023/08/19 12:27:35;;;;;;;39.25;30.05;;;;;;;;;;5092128;28;20079;-63
2023/08/19 12:30:01;;;;;;;36.97;31.60;;;;;;;;;;5092840;28;20075;-63
2023/08/19 12:32:27;;;;;;;44.10;31.50;;;;;;;;;;5092961;28;20709;-63
2023/08/19 12:34:53;;;;;;;42.70;33.53;;;;;;;;;;5092421;28;20044;-63
2023/08/19 12:37:20;;;;;;;41.97;32.53;;;;;;;;;;5088973;28;20094;-63
2023/08/19 12:39:46;;;;;;;40.40;31.50;;;;;;;;;;5072241;28;20119;-63
2023/08/19 12:42:12;;;;;;;44.95;32.42;;;;;;;;;;5072014;28;20481;-63
2023/08/19 12:44:38;;;;;;;36.15;22.23;;;;;;;;;;5072365;28;20045;-63
2023/08/19 12:47:04;;;;;;;22.05;15.60;;;;;;;;;;5071428;28;20051;-63
2023/08/19 12:49:30;;;;;;;11.57;8.30;;;;;;;;;;5081243;28;20070;-63
2023/08/19 12:51:56;;;;;;;10.45;6.95;;;;;;;;;;5092533;28;20044;-63
2023/08/19 12:54:22;;;;;;;11.38;7.18;;;;;;;;;;5092395;28;20039;-63
2023/08/19 12:56:48;;;;;;;11.88;7.57;;;;;;;;;;5091996;28;20123;-63
2023/08/19 12:59:14;;;;;;;11.43;7.28;;;;;;;;;;5092225;28;20066;-63
2023/08/19 13:01:40;;;;;;;7.68;6.30;;;;;;;;;;5092303;28;20110;-63
2023/08/19 13:04:06;;;;;;;11.05;6.97;;;;;;;;;;5091824;28;20040;-63
2023/08/19 13:06:33;;;;;;;12.98;7.60;;;;;;;;;;5092337;28;20717;-63
2023/08/19 13:08:59;;;;;;;11.13;8.40;;;;;;;;;;5092174;28;20036;-63
2023/08/19 13:11:25;;;;;;;10.32;7.30;;;;;;;;;;5091783;28;20051;-64
2023/08/19 13:13:53;;;;;;;12.70;8.45;;;;;;;;;;5092160;28;20505;-63
2023/08/19 13:16:19;;;;;;;12.63;8.68;;;;;;;;;;5092101;28;20116;-63
2023/08/19 13:18:45;;;;;;;15.25;8.70;;;;;;;;;;5091759;28;20044;-63
2023/08/19 13:21:12;;;;;;;12.05;8.15;;;;;;;;;;5091994;28;20040;-63
2023/08/19 13:23:38;;;;;;;13.82;9.65;;;;;;;;;;5091966;28;20044;-64
2023/08/19 13:26:04;;;;;;;14.23;9.10;;;;;;;;;;5091678;28;20043;-64
2023/08/19 13:28:31;;;;;;;11.57;7.72;;;;;;;;;;5091639;28;20052;-64
2023/08/19 13:30:57;;;;;;;8.02;5.78;;;;;;;;;;5091589;28;20048;-64
2023/08/19 13:33:23;;;;;;;6.75;4.63;;;;;;;;;;5089904;28;20058;-63
2023/08/19 13:35:49;;;;;;;6.68;4.22;;;;;;;;;;5091688;28;20174;-63
2023/08/19 13:38:15;;;;;;;6.35;4.18;;;;;;;;;;5080384;28;20499;-63
2023/08/19 13:40:42;;;;;;;7.22;3.85;;;;;;;;;;5071105;28;20083;-63
2023/08/19 13:43:08;;;;;;;7.40;4.45;;;;;;;;;;5071604;28;20036;-63
2023/08/19 13:45:34;;;;;;;8.50;3.97;;;;;;;;;;5071554;28;20033;-64
2023/08/19 13:48:00;;;;;;;7.72;4.45;;;;;;;;;;5071113;28;20032;-64
2023/08/19 13:50:26;;;;;;;8.95;4.70;;;;;;;;;;5088793;28;20502;-64
2023/08/19 13:52:52;;;;;;;7.68;4.65;;;;;;;;;;5091351;28;20040;-63
2023/08/19 13:55:18;;;;;;;6.05;4.30;;;;;;;;;;5091114;28;20046;-63
2023/08/19 13:57:44;;;;;;;11.30;4.90;;;;;;;;;;5092976;28;20040;-63
2023/08/19 14:00:10;;;;;;;6.95;4.57;;;;;;;;;;5095615;28;20708;-63
2023/08/19 14:02:40;;;;;;;7.15;5.15;;;;;;;;;;5095329;28;20040;-63
2023/08/19 14:05:06;;;;;;;9.38;5.50;;;;;;;;;;5095410;28;20085;-63
2023/08/19 14:07:32;;;;;;;10.00;5.97;;;;;;;;;;5095758;28;20111;-63
2023/08/19 14:09:58;;;;;;;10.45;6.78;;;;;;;;;;5095215;28;20123;-63
2023/08/19 14:12:25;;;;;;;10.70;6.72;;;;;;;;;;5095737;28;20048;-63
2023/08/19 14:14:51;;;;;;;11.88;7.22;;;;;;;;;;5095313;28;20043;-63
2023/08/19 14:17:17;;;;;;;12.23;7.60;;;;;;;;;;5093968;28;20394;-63
2023/08/19 14:19:43;;;;;;;12.98;7.68;;;;;;;;;;5095371;28;20376;-63
2023/08/19 14:22:09;;;;;;;11.50;7.65;;;;;;;;;;5094092;28;20097;-63